Туризм
Свали.ру
Погода в мире
ИА "Метеоновости"
Информеры
для сайтов
Туры
поиск и заказ
Авиабилеты
регулярные и чартерные рейсы
 
    На главную   Табло рисков задержки   Авиабилеты   Расписание авиарейсов

Hall Beach Airport    ICAO или ID: CYUX, IATA: YUX
Небольшой аэропорт, регулярные рейсы
добавить в избранное


широта:
долгота:
высота над уровнем моря:
68°47'
-81°15'

9 м
Страна: Канада (Canada)
погода
климат
описание
туры
отели
аэропорты
Риск задержки рейсов из-за погоды
Факт:  
Прогноз:  
 Карта
 



Текущее время 12:31 UTC 25-06-2024
Солнце: восход -, заход -, долгота дня 24:00

  01:00 (на 12ч) 07:00 (на 12ч) 13:00 (на 12ч) [19:00 (на 12ч)]

Прогноз погоды на 12 ч. с 19:00 24-06-2024 по 07:00 25-06-2024 UTC


Исходная телеграмма в коде TAF
CYUX 241840Z 2419/2507 35010KT P6SM SCT020 BKN080
TEMPO 2419/2507 BKN020 OVC080
BECMG 2502/2504 32015KT

Раскодировка телеграмм производится в автоматическом режиме, в телеграммах могут содержаться ошибки, приводящие к их неправильной интерпретации.

Предупреждение: данные на этом сайте не могут быть использованы для планирования полётов и предоставляются только в информационных целях.
Найти аэропорт
По названию или городу
только регулярные рейсы

Избранные аэропорты
Список пуст



© 2008 Данио-Пресс. Все права защищены.
Использование материалов сайта возможно только с согласия администрации сервера.
По вопросам рекламы и размещения информации обращаться сюда.


 Рейтинг@Mail.ru  Rambler's Top100